Terminal Aerodrome Forecast
Issued by NWS Quad Cities IA IL

Home | Current Version | Previous Version | Text Only | Print | Product List | Glossary On
Versions: 1 2 3 4 5 6 7 8 9 10 11 12 13 14 15 16 17 18 19
000
FTUS43 KDVN 030058 AAA
TAFDBQ
TAF AMD
KDBQ 030058Z 0301/0324 27011KT P6SM SCT150
     FM030300 30011KT P6SM FEW150
     FM030500 33007KT P6SM SKC
     FM031500 30009KT P6SM SCT060=

USA.gov is the U.S. government's official web portal to all federal, state and local government web resources and services.